Time;durP1;ratioP1;P1;durP2;ratioP2;P2;SDS_P1;SDS_P2;PMS_P1;PMS_P2;Temp;Humidity;BMP_temperature;BMP_pressure;BME280_temperature;BME280_humidity;BME280_pressure;Samples;Min_cycle;Max_cycle;Signal;HPM_P1;HPM_P2
2021/10/22 00:02:17;;;;;;;17.30;5.72;;;5.60;87.50;;;;;;5005675;28;20037;-71
2021/10/22 00:04:44;;;;;;;18.50;5.88;;;5.60;87.40;;;;;;5009524;28;20038;-72
2021/10/22 00:07:09;;;;;;;17.83;5.55;;;5.60;87.50;;;;;;5008399;28;20037;-72
2021/10/22 00:09:35;;;;;;;13.70;5.47;;;5.70;87.30;;;;;;5006711;28;20091;-71
2021/10/22 00:12:01;;;;;;;17.10;5.82;;;5.70;87.20;;;;;;5006988;28;20027;-75
2021/10/22 00:14:26;;;;;;;18.80;5.57;;;5.60;87.20;;;;;;5011901;28;20108;-72
2021/10/22 00:16:54;;;;;;;14.85;5.55;;;5.60;87.00;;;;;;5008550;28;20465;-71
2021/10/22 00:19:19;;;;;;;14.02;5.85;;;5.60;86.90;;;;;;5009942;28;20030;-72
2021/10/22 00:21:45;;;;;;;12.52;4.82;;;5.70;86.80;;;;;;5010610;28;20045;-71
2021/10/22 00:24:11;;;;;;;16.73;5.20;;;5.70;86.60;;;;;;5010105;28;20088;-71
2021/10/22 00:26:37;;;;;;;15.18;5.55;;;5.70;86.40;;;;;;5010127;28;20486;-71
2021/10/22 00:29:03;;;;;;;14.80;5.88;;;5.70;86.20;;;;;;5010926;28;20124;-71
2021/10/22 00:31:28;;;;;;;13.68;5.80;;;5.70;86.20;;;;;;5005226;28;20114;-74
2021/10/22 00:33:54;;;;;;;14.70;5.10;;;5.60;86.10;;;;;;5006314;28;20141;-71
2021/10/22 00:36:20;;;;;;;14.75;5.13;;;5.60;86.20;;;;;;5011001;28;20034;-73
2021/10/22 00:38:46;;;;;;;14.82;4.82;;;5.60;86.20;;;;;;5005996;28;20034;-71
2021/10/22 00:41:11;;;;;;;17.42;5.47;;;5.60;85.90;;;;;;5025593;28;20030;-71
2021/10/22 00:43:37;;;;;;;16.90;5.18;;;5.60;86.00;;;;;;5010011;28;20038;-73
2021/10/22 00:46:03;;;;;;;15.95;4.72;;;5.60;85.90;;;;;;5009890;28;20064;-72
2021/10/22 00:48:29;;;;;;;12.57;5.20;;;5.60;85.70;;;;;;5010986;28;20133;-71
2021/10/22 00:50:59;;;;;;;14.90;4.70;;;5.60;85.80;;;;;;5009002;28;20752;-72
2021/10/22 00:53:26;;;;;;;17.23;5.43;;;5.60;85.90;;;;;;5008148;28;20088;-71
2021/10/22 00:55:52;;;;;;;16.42;5.10;;;5.60;85.70;;;;;;5009229;28;20483;-71
2021/10/22 00:58:18;;;;;;;18.85;5.35;;;5.50;85.60;;;;;;5015825;28;20057;-71
2021/10/22 01:00:44;;;;;;;15.10;4.90;;;5.60;85.80;;;;;;5009403;28;20041;-75
2021/10/22 01:03:10;;;;;;;18.60;5.50;;;5.60;85.60;;;;;;5018585;28;21578;-73
2021/10/22 01:05:36;;;;;;;21.88;6.18;;;5.60;85.60;;;;;;5008151;28;20469;-74
2021/10/22 01:08:04;;;;;;;16.52;4.95;;;5.60;85.70;;;;;;5006977;28;20093;-71
2021/10/22 01:10:30;;;;;;;14.48;5.03;;;5.60;85.70;;;;;;5004844;28;20030;-71
2021/10/22 01:12:57;;;;;;;12.77;5.18;;;5.50;85.90;;;;;;5008642;28;20436;-74
2021/10/22 01:15:22;;;;;;;15.10;4.97;;;5.60;85.70;;;;;;5008187;28;21179;-74
2021/10/22 01:17:48;;;;;;;13.57;4.65;;;5.60;85.60;;;;;;5006398;28;20034;-73
2021/10/22 01:20:19;;;;;;;20.23;4.80;;;5.60;85.60;;;;;;5005410;28;20037;-72
2021/10/22 01:22:46;;;;;;;12.57;5.13;;;5.60;85.60;;;;;;5014046;28;20042;-71
2021/10/22 01:25:15;;;;;;;15.73;4.82;;;5.50;85.60;;;;;;5005848;28;20033;-71
2021/10/22 01:27:42;;;;;;;15.05;4.68;;;5.50;85.60;;;;;;5010845;28;20122;-71
2021/10/22 01:30:11;;;;;;;18.77;5.40;;;5.50;85.70;;;;;;5010213;28;20088;-71
2021/10/22 01:32:37;;;;;;;13.57;4.75;;;5.50;85.60;;;;;;5010676;28;21598;-71
2021/10/22 01:35:04;;;;;;;13.50;4.82;;;5.40;85.60;;;;;;5014035;28;20492;-71
2021/10/22 01:37:30;;;;;;;19.63;5.68;;;5.40;85.70;;;;;;5005907;28;20175;-71
2021/10/22 01:39:57;;;;;;;16.35;4.00;;;5.30;85.80;;;;;;5009745;28;20376;-72
2021/10/22 01:42:23;;;;;;;15.57;4.50;;;5.30;86.00;;;;;;5006973;28;20091;-71
2021/10/22 01:44:50;;;;;;;16.85;5.10;;;5.30;86.00;;;;;;5005994;28;20080;-71
2021/10/22 01:47:17;;;;;;;12.10;4.90;;;5.40;85.80;;;;;;5009067;28;20057;-75
2021/10/22 01:49:43;;;;;;;14.80;5.05;;;5.50;85.40;;;;;;5007025;28;20104;-72
2021/10/22 01:52:10;;;;;;;17.98;4.97;;;5.50;85.40;;;;;;5010317;28;20088;-72
2021/10/22 01:54:35;;;;;;;16.67;4.82;;;5.50;85.30;;;;;;5008686;28;20030;-72
2021/10/22 01:57:01;;;;;;;14.75;5.10;;;5.40;85.50;;;;;;5008250;28;20041;-72
2021/10/22 01:59:27;;;;;;;16.23;4.35;;;5.40;85.60;;;;;;5006617;28;20113;-71
2021/10/22 02:01:53;;;;;;;13.93;4.72;;;5.30;85.50;;;;;;5009876;28;20029;-71
2021/10/22 02:04:18;;;;;;;20.25;5.18;;;5.40;85.50;;;;;;5009487;28;20462;-71
2021/10/22 02:06:45;;;;;;;16.98;4.45;;;5.40;85.40;;;;;;5008560;28;20366;-71
2021/10/22 02:09:11;;;;;;;15.43;5.05;;;5.40;85.30;;;;;;5006611;28;20470;-71
2021/10/22 02:11:36;;;;;;;20.45;5.78;;;5.40;85.20;;;;;;5008129;28;20045;-71
2021/10/22 02:14:02;;;;;;;18.25;4.93;;;5.50;85.00;;;;;;5007342;28;20071;-71
2021/10/22 02:16:28;;;;;;;15.05;4.53;;;5.60;84.80;;;;;;5008317;28;20055;-72
2021/10/22 02:18:53;;;;;;;15.60;5.32;;;5.50;84.60;;;;;;5004568;28;20031;-72
2021/10/22 02:21:19;;;;;;;20.95;6.15;;;5.60;84.50;;;;;;5007752;28;20026;-71
2021/10/22 02:23:45;;;;;;;18.25;5.10;;;5.60;84.50;;;;;;5007244;28;20042;-75
2021/10/22 02:26:11;;;;;;;10.98;4.10;;;5.60;84.50;;;;;;5007878;28;20064;-72
2021/10/22 02:28:36;;;;;;;16.15;4.20;;;5.60;84.40;;;;;;5005907;28;20049;-71
2021/10/22 02:31:02;;;;;;;15.05;4.95;;;5.60;84.50;;;;;;5008518;28;20399;-72
2021/10/22 02:33:28;;;;;;;15.05;5.10;;;5.50;84.30;;;;;;5007181;28;20136;-77
2021/10/22 02:35:54;;;;;;;13.10;4.60;;;5.60;84.40;;;;;;5008660;28;20125;-73
2021/10/22 02:38:19;;;;;;;14.88;4.78;;;5.60;84.60;;;;;;5006870;28;20041;-71
2021/10/22 02:40:45;;;;;;;14.15;4.70;;;5.60;84.60;;;;;;5009169;28;20056;-72
2021/10/22 02:43:11;;;;;;;16.38;4.43;;;5.60;84.50;;;;;;5006844;28;20083;-73
2021/10/22 02:45:36;;;;;;;13.32;4.40;;;5.60;84.50;;;;;;5008204;28;20457;-71
2021/10/22 02:48:02;;;;;;;11.38;4.38;;;5.60;84.50;;;;;;5007584;28;20079;-73
2021/10/22 02:50:28;;;;;;;13.98;4.10;;;5.60;84.70;;;;;;5005554;28;20026;-71
2021/10/22 02:52:53;;;;;;;15.88;4.47;;;5.50;85.00;;;;;;5008325;28;20429;-73
2021/10/22 02:55:19;;;;;;;14.80;4.60;;;5.60;84.80;;;;;;5030612;28;20037;-71
2021/10/22 02:57:45;;;;;;;11.55;4.30;;;5.60;84.70;;;;;;5006112;28;20026;-72
2021/10/22 03:00:12;;;;;;;14.50;4.32;;;5.60;84.80;;;;;;5010819;28;20120;-73
2021/10/22 03:02:41;;;;;;;18.67;3.85;;;5.60;84.80;;;;;;5005183;28;20026;-72
2021/10/22 03:05:10;;;;;;;12.55;3.95;;;5.60;84.80;;;;;;5007502;28;20032;-72
2021/10/22 03:07:36;;;;;;;15.30;4.28;;;5.60;84.80;;;;;;5009806;28;20037;-71
2021/10/22 03:10:03;;;;;;;12.55;4.28;;;5.60;84.80;;;;;;5006138;28;20030;-72
2021/10/22 03:12:29;;;;;;;15.10;4.32;;;5.60;84.80;;;;;;5011857;28;20509;-71
2021/10/22 03:14:55;;;;;;;15.00;4.90;;;5.60;84.90;;;;;;5007783;28;20053;-71
2021/10/22 03:17:20;;;;;;;13.18;4.10;;;5.60;85.00;;;;;;5013831;28;20460;-71
2021/10/22 03:19:46;;;;;;;16.30;4.82;;;5.60;85.00;;;;;;5008760;28;20044;-73
2021/10/22 03:22:12;;;;;;;14.80;4.55;;;5.60;85.00;;;;;;5006697;28;20377;-71
2021/10/22 03:24:37;;;;;;;16.70;4.25;;;5.60;85.10;;;;;;5008752;28;20451;-71
2021/10/22 03:27:09;;;;;;;14.70;4.95;;;5.60;85.00;;;;;;5004906;28;20049;-71
2021/10/22 03:29:35;;;;;;;11.85;4.25;;;5.60;84.90;;;;;;5007808;28;20034;-71
2021/10/22 03:32:01;;;;;;;13.80;3.88;;;5.60;85.10;;;;;;5004944;28;20030;-72
2021/10/22 03:34:27;;;;;;;12.90;4.10;;;5.50;85.20;;;;;;5005210;28;20033;-74
2021/10/22 03:36:52;;;;;;;16.77;4.82;;;5.50;85.40;;;;;;5006556;28;20397;-72
2021/10/22 03:39:18;;;;;;;14.23;4.07;;;5.50;85.20;;;;;;5022459;28;20153;-72
2021/10/22 03:41:43;;;;;;;16.42;4.68;;;5.50;85.30;;;;;;5009075;28;20476;-71
2021/10/22 03:44:09;;;;;;;18.08;5.20;;;5.50;85.40;;;;;;5006878;28;20132;-73
2021/10/22 03:46:35;;;;;;;14.30;3.97;;;5.50;85.40;;;;;;5005133;28;20096;-71
2021/10/22 03:49:00;;;;;;;12.52;3.95;;;5.50;85.50;;;;;;5005957;28;20485;-71
2021/10/22 03:51:26;;;;;;;13.45;4.80;;;5.50;85.40;;;;;;5005460;28;20045;-71
2021/10/22 03:53:52;;;;;;;13.82;5.35;;;5.50;85.40;;;;;;5007239;28;20483;-71
2021/10/22 03:56:18;;;;;;;12.52;4.18;;;5.40;85.80;;;;;;5002811;28;20116;-71
2021/10/22 03:58:43;;;;;;;12.95;4.68;;;5.40;85.80;;;;;;5013366;28;20095;-72
2021/10/22 04:01:09;;;;;;;12.48;4.35;;;5.50;85.80;;;;;;5004610;28;20042;-72
2021/10/22 04:03:35;;;;;;;12.75;4.47;;;5.50;85.80;;;;;;5004325;28;20060;-71
2021/10/22 04:06:01;;;;;;;14.88;4.50;;;5.40;85.80;;;;;;5007787;28;20132;-71
2021/10/22 04:08:26;;;;;;;18.55;5.18;;;5.40;85.90;;;;;;5004713;28;20022;-71
2021/10/22 04:10:52;;;;;;;16.63;4.72;;;5.40;86.10;;;;;;5004800;28;20030;-71
2021/10/22 04:13:17;;;;;;;14.77;4.03;;;5.50;86.00;;;;;;5004109;28;20030;-72
2021/10/22 04:15:43;;;;;;;14.32;4.63;;;5.50;85.80;;;;;;5006930;28;20087;-71
2021/10/22 04:18:10;;;;;;;11.18;3.53;;;5.50;86.00;;;;;;5002676;28;20081;-71
2021/10/22 04:20:36;;;;;;;13.00;4.03;;;5.50;85.90;;;;;;5007473;28;20033;-74
2021/10/22 04:23:01;;;;;;;17.23;4.20;;;5.50;86.00;;;;;;5001352;28;20033;-74
2021/10/22 04:25:28;;;;;;;13.63;4.25;;;5.50;85.90;;;;;;5023537;28;20532;-72
2021/10/22 04:27:54;;;;;;;12.70;4.30;;;5.50;85.80;;;;;;5004127;28;20030;-72
2021/10/22 04:30:21;;;;;;;14.23;4.88;;;5.50;85.80;;;;;;5004627;28;20080;-72
2021/10/22 04:32:47;;;;;;;12.77;4.05;;;5.50;85.80;;;;;;5005651;28;20050;-71
2021/10/22 04:35:14;;;;;;;18.77;4.25;;;5.50;85.90;;;;;;5001732;28;20030;-72
2021/10/22 04:37:50;;;;;;;15.40;4.63;;;5.50;85.90;;;;;;4999492;28;20088;-73
2021/10/22 04:40:34;;;;;;;12.15;4.70;;;5.50;86.00;;;;;;5004099;28;20448;-72
2021/10/22 04:43:16;;;;;;;14.10;4.85;;;5.50;86.10;;;;;;5001714;28;20034;-72
2021/10/22 04:45:43;;;;;;;12.23;4.18;;;5.40;86.10;;;;;;5014451;28;20021;-72
2021/10/22 04:48:11;;;;;;;21.27;5.05;;;5.40;86.10;;;;;;5001693;28;20053;-72
2021/10/22 04:50:44;;;;;;;12.98;4.93;;;5.50;86.10;;;;;;4997584;28;20373;-72
2021/10/22 04:53:10;;;;;;;12.05;4.47;;;5.50;86.00;;;;;;5006583;28;20068;-72
2021/10/22 04:55:38;;;;;;;17.95;5.85;;;5.40;86.00;;;;;;5000407;28;20104;-75
2021/10/22 04:58:04;;;;;;;12.55;4.60;;;5.50;86.10;;;;;;5015170;28;20614;-73
2021/10/22 05:00:30;;;;;;;12.68;4.20;;;5.50;86.20;;;;;;5006429;28;20118;-76
2021/10/22 05:02:56;;;;;;;11.73;4.30;;;5.50;86.10;;;;;;5008902;28;20517;-72
2021/10/22 05:05:22;;;;;;;15.63;4.68;;;5.40;86.20;;;;;;5003999;28;20038;-73
2021/10/22 05:07:48;;;;;;;10.98;4.18;;;5.50;86.30;;;;;;5001458;28;20096;-77
2021/10/22 05:10:14;;;;;;;12.15;4.25;;;5.50;86.40;;;;;;5007129;28;20018;-72
2021/10/22 05:12:40;;;;;;;12.52;4.43;;;5.50;86.20;;;;;;5006426;28;20049;-71
2021/10/22 05:15:07;;;;;;;13.40;3.90;;;5.40;86.20;;;;;;5001329;28;20046;-72
2021/10/22 05:17:33;;;;;;;10.25;3.78;;;5.50;86.30;;;;;;4998663;28;20038;-73
2021/10/22 05:19:59;;;;;;;12.70;4.57;;;5.50;86.30;;;;;;5000205;28;20023;-75
2021/10/22 05:22:25;;;;;;;19.75;4.90;;;5.50;86.30;;;;;;5006684;28;20034;-72
2021/10/22 05:24:51;;;;;;;15.38;3.85;;;5.40;86.40;;;;;;5009216;28;20377;-72
2021/10/22 05:27:17;;;;;;;11.82;4.20;;;5.50;86.50;;;;;;5004385;28;20433;-72
2021/10/22 05:29:43;;;;;;;15.40;4.70;;;5.40;86.30;;;;;;5009316;28;20041;-71
2021/10/22 05:32:09;;;;;;;15.55;4.20;;;5.40;86.50;;;;;;5008198;28;20034;-73
2021/10/22 05:34:35;;;;;;;16.23;4.90;;;5.40;86.50;;;;;;5007843;28;20081;-76
2021/10/22 05:37:01;;;;;;;14.60;4.28;;;5.40;86.60;;;;;;5008381;28;20393;-71
2021/10/22 05:39:26;;;;;;;16.75;4.03;;;5.40;86.70;;;;;;5006141;28;20104;-73
2021/10/22 05:41:52;;;;;;;13.32;4.10;;;5.40;86.90;;;;;;5009994;28;20128;-72
2021/10/22 05:44:19;;;;;;;14.82;4.32;;;5.30;87.00;;;;;;5009358;28;20149;-72
2021/10/22 05:46:51;;;;;;;12.48;4.22;;;5.40;87.10;;;;;;5007250;28;20041;-73
2021/10/22 05:49:17;;;;;;;17.00;4.60;;;5.50;87.00;;;;;;5006705;28;20117;-72
2021/10/22 05:51:43;;;;;;;13.35;3.90;;;5.40;86.90;;;;;;5007925;28;20540;-75
2021/10/22 05:54:09;;;;;;;11.02;4.20;;;5.50;87.00;;;;;;5005124;28;20061;-71
2021/10/22 05:56:34;;;;;;;15.43;4.57;;;5.40;87.00;;;;;;5009477;28;20454;-72
2021/10/22 05:59:00;;;;;;;16.17;4.28;;;5.50;87.00;;;;;;5007782;28;20148;-72
2021/10/22 06:01:26;;;;;;;14.52;4.30;;;5.50;87.00;;;;;;5008378;28;20097;-72
2021/10/22 06:03:51;;;;;;;14.35;3.92;;;5.50;87.20;;;;;;5009666;28;20117;-72
2021/10/22 06:06:17;;;;;;;11.43;3.78;;;5.60;87.20;;;;;;5005972;28;20061;-72
2021/10/22 06:08:44;;;;;;;15.13;4.03;;;5.60;87.00;;;;;;5009085;28;20037;-72
2021/10/22 06:11:11;;;;;;;14.18;4.55;;;5.60;87.20;;;;;;5006385;28;20046;-73
2021/10/22 06:13:41;;;;;;;16.50;4.20;;;5.60;87.30;;;;;;5025877;28;20037;-72
2021/10/22 06:16:09;;;;;;;13.73;5.05;;;5.60;87.30;;;;;;5011485;28;20038;-74
2021/10/22 06:18:37;;;;;;;14.50;4.80;;;5.70;87.30;;;;;;5011424;28;20040;-74
2021/10/22 06:21:06;;;;;;;14.30;4.95;;;5.70;87.20;;;;;;5004764;28;20062;-71
2021/10/22 06:26:16;;;;;;;16.10;4.93;;;5.80;87.20;;;;;;5008491;28;20040;-70
2021/10/22 06:28:42;;;;;;;14.85;4.88;;;5.90;86.90;;;;;;5009799;28;20042;-73
2021/10/22 06:31:08;;;;;;;13.30;4.82;;;6.00;86.80;;;;;;5001966;28;20034;-69
2021/10/22 06:33:34;;;;;;;15.52;4.95;;;6.10;86.30;;;;;;5002884;28;20038;-69
2021/10/22 06:36:00;;;;;;;18.55;5.55;;;6.10;86.30;;;;;;5003318;28;20123;-70
2021/10/22 06:38:25;;;;;;;16.27;4.20;;;6.20;86.20;;;;;;5007219;28;20473;-70
2021/10/22 06:40:54;;;;;;;16.00;4.88;;;6.30;86.00;;;;;;5005255;28;20025;-72
2021/10/22 06:43:23;;;;;;;16.67;5.60;;;6.30;85.80;;;;;;5006006;28;20042;-69
2021/10/22 06:45:49;;;;;;;14.02;4.63;;;6.40;85.80;;;;;;5006514;28;20034;-70
2021/10/22 06:48:16;;;;;;;12.77;4.32;;;6.40;85.40;;;;;;5004621;28;20046;-69
2021/10/22 06:50:43;;;;;;;14.52;4.65;;;6.50;85.20;;;;;;5008007;28;20030;-72
2021/10/22 06:53:08;;;;;;;16.13;4.53;;;6.50;85.20;;;;;;5005394;28;20493;-69
2021/10/22 06:55:35;;;;;;;13.80;4.40;;;6.60;85.10;;;;;;5020555;28;20053;-70
2021/10/22 06:58:01;;;;;;;13.32;4.25;;;6.60;84.90;;;;;;5005172;28;20064;-69
2021/10/22 07:00:27;;;;;;;13.70;4.72;;;6.60;85.10;;;;;;5005081;28;20481;-69
2021/10/22 07:02:55;;;;;;;12.82;5.05;;;6.60;85.20;;;;;;5008013;28;20033;-73
2021/10/22 07:07:59;;;;;;;12.23;4.20;;;6.60;85.30;;;;;;5003027;28;20034;-73
2021/10/22 07:10:25;;;;;;;14.40;4.80;;;6.60;85.40;;;;;;5021442;28;20432;-69
2021/10/22 07:12:51;;;;;;;15.70;4.70;;;6.70;85.40;;;;;;5002384;28;20466;-70
2021/10/22 07:15:17;;;;;;;18.00;4.75;;;6.80;85.40;;;;;;5003641;28;20072;-71
2021/10/22 07:17:45;;;;;;;12.75;4.32;;;6.80;85.30;;;;;;5012215;28;20053;-69
2021/10/22 07:20:12;;;;;;;19.50;4.53;;;6.90;85.40;;;;;;5002529;28;20465;-70
2021/10/22 07:22:47;;;;;;;14.43;4.85;;;6.90;85.50;;;;;;5006699;28;20038;-70
2021/10/22 07:25:14;;;;;;;15.35;4.75;;;7.00;85.40;;;;;;5007062;28;20054;-70
2021/10/22 07:27:40;;;;;;;13.18;4.88;;;7.10;85.40;;;;;;5006867;28;20056;-71
2021/10/22 07:30:06;;;;;;;18.10;5.32;;;7.10;85.10;;;;;;5010134;28;20026;-70
2021/10/22 07:32:32;;;;;;;17.27;5.32;;;7.20;85.00;;;;;;5004781;28;20022;-70
2021/10/22 07:34:58;;;;;;;15.82;4.95;;;7.30;84.90;;;;;;5000873;28;20809;-70
2021/10/22 07:37:23;;;;;;;12.82;5.30;;;7.40;84.50;;;;;;5002429;28;20477;-69
2021/10/22 07:39:49;;;;;;;13.07;4.07;;;7.50;84.50;;;;;;5003988;28;20129;-69
2021/10/22 07:42:15;;;;;;;14.93;4.05;;;7.60;84.50;;;;;;5005146;28;20117;-73
2021/10/22 07:44:40;;;;;;;14.57;4.53;;;7.80;84.20;;;;;;5001479;28;20026;-70
2021/10/22 07:47:06;;;;;;;18.55;5.55;;;8.00;83.60;;;;;;5003187;28;20110;-70
2021/10/22 07:49:32;;;;;;;18.33;4.65;;;8.10;83.40;;;;;;5002519;28;20096;-70
2021/10/22 07:51:59;;;;;;;13.77;4.50;;;8.10;83.20;;;;;;5001010;28;20034;-72
2021/10/22 07:54:25;;;;;;;18.20;4.47;;;8.10;83.20;;;;;;5004684;28;20044;-70
2021/10/22 07:56:50;;;;;;;14.82;4.35;;;8.00;83.10;;;;;;4998538;28;20030;-72
2021/10/22 07:59:16;;;;;;;15.38;4.60;;;8.10;83.00;;;;;;5005967;28;20053;-69
2021/10/22 08:01:44;;;;;;;13.38;4.45;;;8.00;83.00;;;;;;5005652;28;20037;-69
2021/10/22 08:04:10;;;;;;;18.95;4.00;;;8.00;83.30;;;;;;4998345;28;20472;-70
2021/10/22 08:06:37;;;;;;;19.33;4.28;;;8.10;82.90;;;;;;4999157;28;20034;-69
2021/10/22 08:09:04;;;;;;;13.70;4.43;;;8.20;82.80;;;;;;5005858;28;20512;-69
2021/10/22 08:11:30;;;;;;;15.38;3.47;;;8.10;83.10;;;;;;5006168;28;20030;-69
2021/10/22 08:13:56;;;;;;;17.83;4.30;;;8.10;83.30;;;;;;5004592;28;20026;-69
2021/10/22 08:16:21;;;;;;;14.20;4.65;;;8.10;83.20;;;;;;4999747;28;20053;-69
2021/10/22 08:18:47;;;;;;;19.73;4.43;;;8.20;83.00;;;;;;5007183;28;20040;-69
2021/10/22 08:21:34;;;;;;;13.13;3.95;;;8.40;82.70;;;;;;5004355;28;21388;-69
2021/10/22 08:23:59;;;;;;;12.80;4.60;;;8.50;82.50;;;;;;5003826;28;20033;-70
2021/10/22 08:26:25;;;;;;;10.38;4.22;;;8.60;82.10;;;;;;5003468;28;20038;-70
2021/10/22 08:28:51;;;;;;;12.15;4.00;;;8.80;81.90;;;;;;5012692;28;20072;-69
2021/10/22 08:31:17;;;;;;;13.38;4.10;;;8.90;81.70;;;;;;5007564;28;20135;-71
2021/10/22 08:33:43;;;;;;;13.25;4.72;;;9.10;80.90;;;;;;5008978;28;20048;-71
2021/10/22 08:36:09;;;;;;;13.00;4.30;;;9.20;80.90;;;;;;5008272;28;20050;-69
2021/10/22 08:38:35;;;;;;;12.50;3.72;;;9.40;80.30;;;;;;5009556;28;20042;-69
2021/10/22 08:41:03;;;;;;;13.20;3.50;;;9.60;80.20;;;;;;5008904;28;20028;-71
2021/10/22 08:43:29;;;;;;;15.30;4.10;;;9.60;79.80;;;;;;5008952;28;20034;-68
2021/10/22 08:45:58;;;;;;;12.85;3.83;;;9.80;79.20;;;;;;5009151;28;20107;-69
2021/10/22 08:48:26;;;;;;;16.23;3.95;;;9.80;79.20;;;;;;5009230;28;20049;-69
2021/10/22 08:50:53;;;;;;;14.60;3.90;;;10.10;79.10;;;;;;5009561;28;20153;-69
2021/10/22 08:53:19;;;;;;;12.00;3.97;;;10.10;78.20;;;;;;5007528;28;20112;-69
2021/10/22 08:55:45;;;;;;;11.25;3.58;;;10.20;78.00;;;;;;5005489;28;20137;-68
2021/10/22 08:58:12;;;;;;;12.30;3.75;;;10.30;77.70;;;;;;5010217;28;20028;-68
2021/10/22 09:00:38;;;;;;;12.77;3.92;;;10.30;77.40;;;;;;5009262;28;20065;-69
2021/10/22 09:03:11;;;;;;;11.85;3.95;;;10.40;78.00;;;;;;5012017;28;20034;-69
2021/10/22 09:05:54;;;;;;;12.53;3.70;;;10.50;76.70;;;;;;5015309;28;20050;-69
2021/10/22 09:08:37;;;;;;;13.20;3.50;;;10.60;76.40;;;;;;5009857;28;20116;-69
2021/10/22 09:11:05;;;;;;;12.57;3.25;;;10.60;76.40;;;;;;5010612;28;20061;-70
2021/10/22 09:13:35;;;;;;;16.30;4.70;;;10.90;76.20;;;;;;5006076;28;20481;-70
2021/10/22 09:16:22;;;;;;;15.07;3.47;;;10.90;75.80;;;;;;5002180;28;20058;-70
2021/10/22 09:18:52;;;;;;;15.40;3.65;;;11.10;75.50;;;;;;5005824;28;20045;-70
2021/10/22 09:21:27;;;;;;;13.00;3.65;;;11.10;75.80;;;;;;5008399;28;20018;-71
2021/10/22 09:24:11;;;;;;;17.75;4.15;;;11.20;75.30;;;;;;5008461;28;20057;-69
2021/10/22 09:26:37;;;;;;;10.68;3.30;;;11.20;75.20;;;;;;5000583;28;20128;-70
2021/10/22 09:29:17;;;;;;;15.73;3.63;;;11.30;76.00;;;;;;5005416;28;20034;-69
2021/10/22 09:31:44;;;;;;;11.18;3.53;;;11.40;75.20;;;;;;5004712;28;20084;-71
2021/10/22 09:34:10;;;;;;;12.95;3.80;;;11.50;75.10;;;;;;5005247;28;20037;-71
2021/10/22 09:36:42;;;;;;;13.15;2.72;;;11.40;76.30;;;;;;5007195;28;20123;-72
2021/10/22 09:39:19;;;;;;;12.90;3.83;;;11.60;75.30;;;;;;5005948;28;20505;-71
2021/10/22 09:42:09;;;;;;;11.63;3.05;;;11.70;74.10;;;;;;5002376;28;20054;-76
2021/10/22 09:44:38;;;;;;;11.00;2.95;;;11.80;73.10;;;;;;5011483;28;20049;-77
2021/10/22 09:47:04;;;;;;;16.65;3.65;;;12.10;72.40;;;;;;4997591;28;20045;-73
2021/10/22 09:49:34;;;;;;;13.30;3.63;;;11.90;72.20;;;;;;5002845;28;20121;-72
2021/10/22 09:52:01;;;;;;;15.48;3.78;;;12.10;72.30;;;;;;4995627;28;20040;-73
2021/10/22 09:54:31;;;;;;;10.73;3.10;;;12.00;71.60;;;;;;4996915;28;20034;-72
2021/10/22 09:57:04;;;;;;;12.13;3.40;;;12.10;71.50;;;;;;4997728;28;20053;-77
2021/10/22 09:59:30;;;;;;;11.02;3.55;;;12.10;70.80;;;;;;4999582;28;20029;-72
2021/10/22 10:01:58;;;;;;;12.40;3.38;;;12.00;71.40;;;;;;4995670;28;20037;-78
2021/10/22 10:04:28;;;;;;;14.48;3.25;;;12.10;71.60;;;;;;5000604;28;20084;-76
2021/10/22 10:06:54;;;;;;;12.25;2.65;;;12.30;71.10;;;;;;4994140;28;20038;-73
2021/10/22 10:09:26;;;;;;;11.77;2.97;;;12.40;70.70;;;;;;4989392;28;20061;-76
2021/10/22 10:11:54;;;;;;;9.20;3.17;;;12.60;69.00;;;;;;4993783;28;20023;-73
2021/10/22 10:14:23;;;;;;;11.05;3.28;;;12.60;69.20;;;;;;5001147;28;20069;-70
2021/10/22 10:16:59;;;;;;;11.68;2.60;;;12.40;69.00;;;;;;5007469;28;20412;-73
2021/10/22 10:19:27;;;;;;;13.10;2.83;;;12.60;69.50;;;;;;5003938;28;20040;-73
2021/10/22 10:21:55;;;;;;;6.97;2.28;;;12.50;69.20;;;;;;5005257;28;20041;-72
2021/10/22 10:24:32;;;;;;;12.75;2.80;;;12.50;68.40;;;;;;5003374;28;20033;-72
2021/10/22 10:27:21;;;;;;;13.60;4.60;;;12.60;68.00;;;;;;5000668;28;20595;-72
2021/10/22 10:29:49;;;;;;;14.38;4.63;;;12.60;68.60;;;;;;5007658;28;20088;-72
2021/10/22 10:32:17;;;;;;;12.48;3.10;;;12.60;69.40;;;;;;5004598;28;20042;-70
2021/10/22 10:34:46;;;;;;;8.55;3.00;;;12.80;68.20;;;;;;5006472;28;20036;-72
2021/10/22 10:37:28;;;;;;;10.57;2.92;;;12.50;66.60;;;;;;5004235;28;20438;-72
2021/10/22 10:40:08;;;;;;;13.40;3.42;;;12.30;66.70;;;;;;5004564;28;20071;-71
2021/10/22 10:42:56;;;;;;;14.13;2.53;;;12.30;67.60;;;;;;5005814;28;20124;-71
2021/10/22 10:45:21;;;;;;;9.63;2.30;;;12.40;67.50;;;;;;5002901;28;20042;-71
2021/10/22 10:47:54;;;;;;;9.20;2.20;;;12.40;67.90;;;;;;5001628;28;20041;-74
2021/10/22 10:50:55;;;;;;;9.13;2.30;;;12.40;67.40;;;;;;5001132;28;20120;-71
2021/10/22 10:53:43;;;;;;;12.18;2.50;;;12.60;67.30;;;;;;5000735;28;20340;-71
2021/10/22 10:56:21;;;;;;;9.88;2.10;;;12.80;67.50;;;;;;5004233;28;20049;-72
2021/10/22 10:58:47;;;;;;;12.23;3.25;;;12.80;66.40;;;;;;5006057;28;20029;-74
2021/10/22 11:01:37;;;;;;;10.15;2.80;;;12.80;66.20;;;;;;5002330;28;20112;-72
2021/10/22 11:04:04;;;;;;;10.18;2.22;;;12.80;65.80;;;;;;5001506;28;20462;-71
2021/10/22 11:06:44;;;;;;;9.55;2.60;;;12.80;65.60;;;;;;5002875;28;20040;-71
2021/10/22 11:09:37;;;;;;;12.38;3.78;;;12.90;65.20;;;;;;5001812;28;20026;-71
2021/10/22 11:12:04;;;;;;;9.75;2.72;;;13.10;65.30;;;;;;5002035;28;20040;-76
2021/10/22 11:14:44;;;;;;;10.30;3.55;;;13.10;66.30;;;;;;5001727;28;20041;-70
2021/10/22 11:17:13;;;;;;;5.95;2.47;;;12.90;64.20;;;;;;5001039;28;20044;-71
2021/10/22 11:19:44;;;;;;;11.85;2.90;;;12.90;65.60;;;;;;5002799;28;20708;-79
2021/10/22 11:22:18;;;;;;;7.32;2.25;;;13.10;66.30;;;;;;5017550;28;20105;-71
2021/10/22 11:24:44;;;;;;;8.25;2.30;;;13.10;65.50;;;;;;5001633;28;20034;-70
2021/10/22 11:27:16;;;;;;;5.22;1.67;;;13.10;65.10;;;;;;5007088;28;20048;-71
2021/10/22 11:29:47;;;;;;;9.70;2.38;;;12.80;65.50;;;;;;5011032;28;20022;-71
2021/10/22 11:32:18;;;;;;;8.50;2.33;;;12.60;66.50;;;;;;5008078;28;20029;-71
2021/10/22 11:34:57;;;;;;;7.80;2.28;;;12.40;67.50;;;;;;5005054;28;20053;-70
2021/10/22 11:37:25;;;;;;;7.75;1.95;;;12.40;67.60;;;;;;5005317;28;20068;-72
2021/10/22 11:39:53;;;;;;;7.80;2.70;;;12.40;68.00;;;;;;5008539;28;20674;-72
2021/10/22 11:42:32;;;;;;;8.43;2.63;;;12.30;67.70;;;;;;5002998;28;20032;-71
2021/10/22 11:45:02;;;;;;;11.43;2.75;;;12.40;68.10;;;;;;5005415;28;20718;-71
2021/10/22 11:47:32;;;;;;;8.77;2.40;;;12.40;68.10;;;;;;5007532;28;20473;-71
2021/10/22 11:50:10;;;;;;;8.10;1.90;;;12.40;68.30;;;;;;5007240;28;20030;-72
2021/10/22 11:52:36;;;;;;;11.00;2.17;;;12.60;66.90;;;;;;5003024;28;20087;-70
2021/10/22 11:55:04;;;;;;;8.43;2.63;;;12.30;67.10;;;;;;5003939;28;20440;-71
2021/10/22 11:57:33;;;;;;;5.72;2.13;;;12.20;67.20;;;;;;5007143;28;20029;-71
2021/10/22 11:59:59;;;;;;;5.57;1.63;;;12.20;66.90;;;;;;5007634;28;20030;-73
2021/10/22 12:02:29;;;;;;;8.82;1.98;;;12.30;67.10;;;;;;5009310;28;20040;-71
2021/10/22 12:05:01;;;;;;;7.38;2.08;;;12.30;67.80;;;;;;5006610;28;20046;-72
2021/10/22 12:07:29;;;;;;;9.23;2.15;;;12.40;67.10;;;;;;5004026;28;20033;-72
2021/10/22 12:09:55;;;;;;;7.85;1.90;;;12.60;67.10;;;;;;5006131;28;20026;-72
2021/10/22 12:12:22;;;;;;;8.20;2.00;;;12.60;66.80;;;;;;5003111;28;20049;-73
2021/10/22 12:14:50;;;;;;;10.13;2.20;;;12.80;65.60;;;;;;5003819;28;20041;-72
2021/10/22 12:17:24;;;;;;;7.90;2.03;;;13.00;65.10;;;;;;5006200;28;20048;-70
2021/10/22 12:19:51;;;;;;;10.73;2.33;;;13.00;64.40;;;;;;5005790;28;20060;-71
2021/10/22 12:22:28;;;;;;;9.23;2.13;;;12.90;65.20;;;;;;5007229;28;20112;-72
2021/10/22 12:24:57;;;;;;;9.18;2.33;;;12.90;65.10;;;;;;5005711;28;20088;-72
2021/10/22 12:27:28;;;;;;;9.00;2.40;;;12.90;65.20;;;;;;5005617;28;20508;-73
2021/10/22 12:30:04;;;;;;;10.77;2.28;;;12.90;65.00;;;;;;5007776;28;20037;-75
2021/10/22 12:32:32;;;;;;;9.43;2.25;;;12.90;65.50;;;;;;5005826;28;20377;-72
2021/10/22 12:34:58;;;;;;;7.47;2.13;;;13.00;65.80;;;;;;5006425;28;20029;-74
2021/10/22 12:37:43;;;;;;;6.80;2.08;;;13.10;66.00;;;;;;5005446;28;20038;-74
2021/10/22 12:40:21;;;;;;;10.23;2.40;;;13.30;65.60;;;;;;5008714;28;20136;-73
2021/10/22 12:43:07;;;;;;;6.28;2.08;;;13.30;66.00;;;;;;5007462;28;20037;-72
2021/10/22 12:45:38;;;;;;;10.52;2.63;;;13.40;65.40;;;;;;5004623;28;20042;-74
2021/10/22 12:48:09;;;;;;;8.93;2.47;;;13.40;65.00;;;;;;5003091;28;20033;-79
2021/10/22 12:50:37;;;;;;;8.52;2.40;;;13.70;64.80;;;;;;5000450;28;20030;-73
2021/10/22 12:53:06;;;;;;;9.23;2.30;;;13.70;65.00;;;;;;5002572;28;20105;-73
2021/10/22 12:55:32;;;;;;;9.32;2.55;;;13.40;64.80;;;;;;5000780;28;20093;-72
2021/10/22 12:58:17;;;;;;;8.77;2.42;;;13.50;65.00;;;;;;4999827;28;20038;-74